sensor_id;sensor_type;location;lat;lon;timestamp;temperature;humidity
18434;DHT22;9344;52.294;13.626;2022-12-18T00:01:49;-4.20;99.90
18434;DHT22;9344;52.294;13.626;2022-12-18T00:04:20;-4.30;99.90
18434;DHT22;9344;52.294;13.626;2022-12-18T00:06:47;-4.30;99.90
18434;DHT22;9344;52.294;13.626;2022-12-18T00:09:14;-3.70;99.90
18434;DHT22;9344;52.294;13.626;2022-12-18T00:11:41;-4.30;99.90
18434;DHT22;9344;52.294;13.626;2022-12-18T00:14:11;-4.30;99.90
18434;DHT22;9344;52.294;13.626;2022-12-18T00:16:38;-4.20;99.90
18434;DHT22;9344;52.294;13.626;2022-12-18T00:19:06;-4.20;99.90
18434;DHT22;9344;52.294;13.626;2022-12-18T00:21:33;-4.10;99.90
18434;DHT22;9344;52.294;13.626;2022-12-18T00:24:00;-4.20;99.90
18434;DHT22;9344;52.294;13.626;2022-12-18T00:26:29;-4.20;99.90
18434;DHT22;9344;52.294;13.626;2022-12-18T00:28:58;-4.10;99.90
18434;DHT22;9344;52.294;13.626;2022-12-18T00:31:27;-4.10;99.90
18434;DHT22;9344;52.294;13.626;2022-12-18T00:33:54;-4.20;99.90
18434;DHT22;9344;52.294;13.626;2022-12-18T00:36:22;-4.10;99.90
18434;DHT22;9344;52.294;13.626;2022-12-18T00:38:49;-4.10;99.90
18434;DHT22;9344;52.294;13.626;2022-12-18T00:41:16;-4.10;99.90
18434;DHT22;9344;52.294;13.626;2022-12-18T00:44:04;-4.20;99.90
18434;DHT22;9344;52.294;13.626;2022-12-18T00:46:32;-4.10;99.90
18434;DHT22;9344;52.294;13.626;2022-12-18T00:48:58;-4.10;99.90
18434;DHT22;9344;52.294;13.626;2022-12-18T00:51:25;-4.10;99.90
18434;DHT22;9344;52.294;13.626;2022-12-18T00:53:52;-3.80;99.90
18434;DHT22;9344;52.294;13.626;2022-12-18T00:56:18;-4.10;99.90
18434;DHT22;9344;52.294;13.626;2022-12-18T00:58:45;-4.00;99.90
18434;DHT22;9344;52.294;13.626;2022-12-18T01:01:11;-4.00;99.90
18434;DHT22;9344;52.294;13.626;2022-12-18T01:03:39;-4.00;99.90
18434;DHT22;9344;52.294;13.626;2022-12-18T01:06:06;-3.90;99.90
18434;DHT22;9344;52.294;13.626;2022-12-18T01:08:33;-3.90;99.90
18434;DHT22;9344;52.294;13.626;2022-12-18T01:11:00;-3.60;99.90
18434;DHT22;9344;52.294;13.626;2022-12-18T01:13:27;-4.00;99.90
18434;DHT22;9344;52.294;13.626;2022-12-18T01:15:53;-4.10;99.90
18434;DHT22;9344;52.294;13.626;2022-12-18T01:18:20;-4.10;99.90
18434;DHT22;9344;52.294;13.626;2022-12-18T01:20:48;-4.10;99.90
18434;DHT22;9344;52.294;13.626;2022-12-18T01:23:14;-4.10;99.90
18434;DHT22;9344;52.294;13.626;2022-12-18T01:25:41;-4.20;99.90
18434;DHT22;9344;52.294;13.626;2022-12-18T01:28:07;-4.60;99.90
18434;DHT22;9344;52.294;13.626;2022-12-18T01:30:34;-4.20;99.90
18434;DHT22;9344;52.294;13.626;2022-12-18T01:33:00;-4.20;99.90
18434;DHT22;9344;52.294;13.626;2022-12-18T01:37:55;-4.20;99.90
18434;DHT22;9344;52.294;13.626;2022-12-18T01:40:22;-4.20;99.90
18434;DHT22;9344;52.294;13.626;2022-12-18T01:42:50;-4.30;99.90
18434;DHT22;9344;52.294;13.626;2022-12-18T01:45:24;-4.20;99.90
18434;DHT22;9344;52.294;13.626;2022-12-18T01:47:53;-4.20;99.90
18434;DHT22;9344;52.294;13.626;2022-12-18T01:50:22;-4.60;99.90
18434;DHT22;9344;52.294;13.626;2022-12-18T01:52:53;-4.20;99.90
18434;DHT22;9344;52.294;13.626;2022-12-18T01:55:24;-4.20;99.90
18434;DHT22;9344;52.294;13.626;2022-12-18T01:57:52;-4.20;99.90
18434;DHT22;9344;52.294;13.626;2022-12-18T02:00:21;-4.10;99.90
18434;DHT22;9344;52.294;13.626;2022-12-18T02:02:48;-4.20;99.90
18434;DHT22;9344;52.294;13.626;2022-12-18T02:05:17;-4.20;99.90
18434;DHT22;9344;52.294;13.626;2022-12-18T02:07:52;-4.30;99.90
18434;DHT22;9344;52.294;13.626;2022-12-18T02:10:27;-4.30;99.90
18434;DHT22;9344;52.294;13.626;2022-12-18T02:13:02;-4.30;99.90
18434;DHT22;9344;52.294;13.626;2022-12-18T02:15:36;-4.50;99.90
18434;DHT22;9344;52.294;13.626;2022-12-18T02:18:08;-4.50;99.90
18434;DHT22;9344;52.294;13.626;2022-12-18T02:20:39;-4.60;99.90
18434;DHT22;9344;52.294;13.626;2022-12-18T02:23:15;-4.60;99.90
18434;DHT22;9344;52.294;13.626;2022-12-18T02:26:07;-4.60;99.90
18434;DHT22;9344;52.294;13.626;2022-12-18T02:28:40;-4.70;99.90
18434;DHT22;9344;52.294;13.626;2022-12-18T02:31:11;-4.80;99.90
18434;DHT22;9344;52.294;13.626;2022-12-18T02:33:40;-4.70;99.90
18434;DHT22;9344;52.294;13.626;2022-12-18T02:36:08;-4.70;99.90
18434;DHT22;9344;52.294;13.626;2022-12-18T02:38:36;-4.60;99.90
18434;DHT22;9344;52.294;13.626;2022-12-18T02:41:05;-4.60;99.90
18434;DHT22;9344;52.294;13.626;2022-12-18T02:43:31;-4.70;99.90
18434;DHT22;9344;52.294;13.626;2022-12-18T02:46:00;-4.70;99.90
18434;DHT22;9344;52.294;13.626;2022-12-18T02:48:31;-4.70;99.90
18434;DHT22;9344;52.294;13.626;2022-12-18T02:51:03;-4.80;99.90
18434;DHT22;9344;52.294;13.626;2022-12-18T02:53:37;-5.00;99.90
18434;DHT22;9344;52.294;13.626;2022-12-18T02:56:11;-4.90;99.90
18434;DHT22;9344;52.294;13.626;2022-12-18T02:58:46;-5.00;99.90
18434;DHT22;9344;52.294;13.626;2022-12-18T03:01:18;-4.90;99.90
18434;DHT22;9344;52.294;13.626;2022-12-18T03:03:50;-4.30;99.90
18434;DHT22;9344;52.294;13.626;2022-12-18T03:06:23;-4.80;99.90
18434;DHT22;9344;52.294;13.626;2022-12-18T03:08:54;-4.70;99.90
18434;DHT22;9344;52.294;13.626;2022-12-18T03:11:25;-4.80;99.90
18434;DHT22;9344;52.294;13.626;2022-12-18T03:14:10;-4.80;99.90
18434;DHT22;9344;52.294;13.626;2022-12-18T03:16:40;-4.70;99.90
18434;DHT22;9344;52.294;13.626;2022-12-18T03:19:10;-4.60;99.90
18434;DHT22;9344;52.294;13.626;2022-12-18T03:21:40;-4.60;99.90
18434;DHT22;9344;52.294;13.626;2022-12-18T03:24:09;-4.60;99.90
18434;DHT22;9344;52.294;13.626;2022-12-18T03:26:44;-4.50;99.90
18434;DHT22;9344;52.294;13.626;2022-12-18T03:29:16;-4.40;99.90
18434;DHT22;9344;52.294;13.626;2022-12-18T03:31:47;-4.40;99.90
18434;DHT22;9344;52.294;13.626;2022-12-18T03:34:19;-3.50;99.90
18434;DHT22;9344;52.294;13.626;2022-12-18T03:36:48;-3.30;99.90
18434;DHT22;9344;52.294;13.626;2022-12-18T03:39:15;-4.10;99.90
18434;DHT22;9344;52.294;13.626;2022-12-18T03:41:46;-4.40;99.90
18434;DHT22;9344;52.294;13.626;2022-12-18T03:44:22;-4.20;99.90
18434;DHT22;9344;52.294;13.626;2022-12-18T03:46:58;-4.10;99.90
18434;DHT22;9344;52.294;13.626;2022-12-18T03:49:27;-4.10;99.90
18434;DHT22;9344;52.294;13.626;2022-12-18T03:52:02;-5.40;99.90
18434;DHT22;9344;52.294;13.626;2022-12-18T03:54:30;-4.20;99.90
18434;DHT22;9344;52.294;13.626;2022-12-18T03:57:02;-4.10;99.90
18434;DHT22;9344;52.294;13.626;2022-12-18T03:59:31;-4.20;99.90
18434;DHT22;9344;52.294;13.626;2022-12-18T04:02:00;-4.10;99.90
18434;DHT22;9344;52.294;13.626;2022-12-18T04:04:28;-4.20;99.90
18434;DHT22;9344;52.294;13.626;2022-12-18T04:06:56;-4.10;99.90
18434;DHT22;9344;52.294;13.626;2022-12-18T04:09:24;-4.10;99.90
18434;DHT22;9344;52.294;13.626;2022-12-18T04:14:20;-4.10;99.90
18434;DHT22;9344;52.294;13.626;2022-12-18T04:16:47;-4.00;99.90
18434;DHT22;9344;52.294;13.626;2022-12-18T04:19:13;-4.10;99.90
18434;DHT22;9344;52.294;13.626;2022-12-18T04:21:40;-4.20;99.90
18434;DHT22;9344;52.294;13.626;2022-12-18T04:24:06;-4.30;99.90
18434;DHT22;9344;52.294;13.626;2022-12-18T04:26:33;-4.30;99.90
18434;DHT22;9344;52.294;13.626;2022-12-18T04:29:00;-4.30;99.90
18434;DHT22;9344;52.294;13.626;2022-12-18T04:31:28;-4.20;99.90
18434;DHT22;9344;52.294;13.626;2022-12-18T04:33:54;-4.10;99.90
18434;DHT22;9344;52.294;13.626;2022-12-18T04:36:21;-4.10;99.90
18434;DHT22;9344;52.294;13.626;2022-12-18T04:38:47;-4.10;99.90
18434;DHT22;9344;52.294;13.626;2022-12-18T04:43:41;-4.10;99.90
18434;DHT22;9344;52.294;13.626;2022-12-18T04:48:36;-4.20;99.90
18434;DHT22;9344;52.294;13.626;2022-12-18T04:51:03;-4.20;99.90
18434;DHT22;9344;52.294;13.626;2022-12-18T04:53:30;-4.20;99.90
18434;DHT22;9344;52.294;13.626;2022-12-18T04:56:05;-4.20;99.90
18434;DHT22;9344;52.294;13.626;2022-12-18T05:01:00;-4.30;99.90
18434;DHT22;9344;52.294;13.626;2022-12-18T05:05:55;-4.30;99.90
18434;DHT22;9344;52.294;13.626;2022-12-18T05:10:49;-4.40;99.90
18434;DHT22;9344;52.294;13.626;2022-12-18T05:15:43;-4.30;99.90
18434;DHT22;9344;52.294;13.626;2022-12-18T05:18:17;-4.60;99.90
18434;DHT22;9344;52.294;13.626;2022-12-18T05:23:12;-4.40;99.90
18434;DHT22;9344;52.294;13.626;2022-12-18T05:28:05;-4.50;99.90
18434;DHT22;9344;52.294;13.626;2022-12-18T05:35:25;-4.40;99.90
18434;DHT22;9344;52.294;13.626;2022-12-18T05:40:20;-4.60;99.90
18434;DHT22;9344;52.294;13.626;2022-12-18T05:50:08;-4.60;99.90
18434;DHT22;9344;52.294;13.626;2022-12-18T05:55:01;-4.60;99.90
18434;DHT22;9344;52.294;13.626;2022-12-18T05:57:29;-4.60;99.90
18434;DHT22;9344;52.294;13.626;2022-12-18T05:59:55;-4.60;99.90
18434;DHT22;9344;52.294;13.626;2022-12-18T06:07:16;-4.50;99.90
18434;DHT22;9344;52.294;13.626;2022-12-18T06:09:42;-4.40;99.90
18434;DHT22;9344;52.294;13.626;2022-12-18T06:12:09;-4.40;99.90
18434;DHT22;9344;52.294;13.626;2022-12-18T06:14:38;-2.40;99.90
18434;DHT22;9344;52.294;13.626;2022-12-18T06:21:58;-4.40;99.90
18434;DHT22;9344;52.294;13.626;2022-12-18T06:24:25;-4.40;99.90
18434;DHT22;9344;52.294;13.626;2022-12-18T06:31:46;-4.30;99.90
18434;DHT22;9344;52.294;13.626;2022-12-18T06:34:13;-4.40;99.90
18434;DHT22;9344;52.294;13.626;2022-12-18T06:36:39;-4.40;99.90
18434;DHT22;9344;52.294;13.626;2022-12-18T06:39:06;-4.40;99.90
18434;DHT22;9344;52.294;13.626;2022-12-18T06:43:59;-4.40;99.90
18434;DHT22;9344;52.294;13.626;2022-12-18T06:46:26;-4.00;99.90
18434;DHT22;9344;52.294;13.626;2022-12-18T06:48:54;-4.50;99.90
18434;DHT22;9344;52.294;13.626;2022-12-18T06:51:22;-4.60;99.90
18434;DHT22;9344;52.294;13.626;2022-12-18T06:53:49;-4.50;99.90
18434;DHT22;9344;52.294;13.626;2022-12-18T06:58:42;-4.50;99.90
18434;DHT22;9344;52.294;13.626;2022-12-18T07:01:10;-4.50;99.90
18434;DHT22;9344;52.294;13.626;2022-12-18T07:06:11;-4.40;99.90
18434;DHT22;9344;52.294;13.626;2022-12-18T07:08:38;-4.30;99.90
18434;DHT22;9344;52.294;13.626;2022-12-18T07:11:05;-4.50;99.90
18434;DHT22;9344;52.294;13.626;2022-12-18T07:13:32;-4.50;99.90
18434;DHT22;9344;52.294;13.626;2022-12-18T07:16:04;-4.50;99.90
18434;DHT22;9344;52.294;13.626;2022-12-18T07:18:31;-4.60;99.90
18434;DHT22;9344;52.294;13.626;2022-12-18T07:20:57;-4.60;99.90
18434;DHT22;9344;52.294;13.626;2022-12-18T07:23:25;-4.50;99.90
18434;DHT22;9344;52.294;13.626;2022-12-18T07:25:52;-4.60;99.90
18434;DHT22;9344;52.294;13.626;2022-12-18T07:28:18;-4.60;99.90
18434;DHT22;9344;52.294;13.626;2022-12-18T07:30:45;-4.60;99.90
18434;DHT22;9344;52.294;13.626;2022-12-18T07:33:11;-4.60;99.90
18434;DHT22;9344;52.294;13.626;2022-12-18T07:35:38;-4.70;99.90
18434;DHT22;9344;52.294;13.626;2022-12-18T07:38:04;-4.60;99.90
18434;DHT22;9344;52.294;13.626;2022-12-18T07:40:32;-4.70;99.90
18434;DHT22;9344;52.294;13.626;2022-12-18T07:42:59;-4.50;99.90
18434;DHT22;9344;52.294;13.626;2022-12-18T07:50:19;-4.30;99.90
18434;DHT22;9344;52.294;13.626;2022-12-18T07:52:46;-4.20;99.90
18434;DHT22;9344;52.294;13.626;2022-12-18T07:55:12;-4.20;99.90
18434;DHT22;9344;52.294;13.626;2022-12-18T07:57:40;-4.20;99.90
18434;DHT22;9344;52.294;13.626;2022-12-18T08:00:08;-3.50;99.90
18434;DHT22;9344;52.294;13.626;2022-12-18T08:02:34;-4.20;99.90
18434;DHT22;9344;52.294;13.626;2022-12-18T08:05:01;-4.10;99.90
18434;DHT22;9344;52.294;13.626;2022-12-18T08:14:50;-4.00;99.90
18434;DHT22;9344;52.294;13.626;2022-12-18T08:17:16;-4.10;99.90
18434;DHT22;9344;52.294;13.626;2022-12-18T08:19:43;-4.10;99.90
18434;DHT22;9344;52.294;13.626;2022-12-18T08:22:09;-3.90;99.90
18434;DHT22;9344;52.294;13.626;2022-12-18T08:24:36;-3.90;99.90
18434;DHT22;9344;52.294;13.626;2022-12-18T08:27:02;-3.40;99.90
18434;DHT22;9344;52.294;13.626;2022-12-18T08:29:29;-3.80;99.90
18434;DHT22;9344;52.294;13.626;2022-12-18T08:31:57;-2.50;99.90
18434;DHT22;9344;52.294;13.626;2022-12-18T08:34:23;-3.30;99.90
18434;DHT22;9344;52.294;13.626;2022-12-18T08:36:50;-3.60;99.90
18434;DHT22;9344;52.294;13.626;2022-12-18T08:39:16;-3.60;99.90
18434;DHT22;9344;52.294;13.626;2022-12-18T08:41:43;-3.60;99.90
18434;DHT22;9344;52.294;13.626;2022-12-18T08:44:30;-3.70;99.90
18434;DHT22;9344;52.294;13.626;2022-12-18T08:47:07;-3.60;99.90
18434;DHT22;9344;52.294;13.626;2022-12-18T08:49:34;-3.70;99.90
18434;DHT22;9344;52.294;13.626;2022-12-18T08:52:01;-3.70;99.90
18434;DHT22;9344;52.294;13.626;2022-12-18T08:54:28;-3.60;99.90
18434;DHT22;9344;52.294;13.626;2022-12-18T08:56:54;-3.60;99.90
18434;DHT22;9344;52.294;13.626;2022-12-18T08:59:21;-3.60;99.90
18434;DHT22;9344;52.294;13.626;2022-12-18T09:01:48;-2.90;99.90
18434;DHT22;9344;52.294;13.626;2022-12-18T09:04:16;-3.20;99.90
18434;DHT22;9344;52.294;13.626;2022-12-18T09:06:43;-3.50;99.90
18434;DHT22;9344;52.294;13.626;2022-12-18T09:09:10;-3.50;99.90
18434;DHT22;9344;52.294;13.626;2022-12-18T09:11:36;-2.90;99.90
18434;DHT22;9344;52.294;13.626;2022-12-18T09:14:03;-2.60;99.90
18434;DHT22;9344;52.294;13.626;2022-12-18T09:16:30;-3.40;99.90
18434;DHT22;9344;52.294;13.626;2022-12-18T09:21:28;-3.70;99.90
18434;DHT22;9344;52.294;13.626;2022-12-18T09:23:55;-3.20;99.90
18434;DHT22;9344;52.294;13.626;2022-12-18T09:26:23;-3.20;99.90
18434;DHT22;9344;52.294;13.626;2022-12-18T09:31:18;-3.30;99.90
18434;DHT22;9344;52.294;13.626;2022-12-18T09:36:13;-3.10;99.90
18434;DHT22;9344;52.294;13.626;2022-12-18T09:38:41;-3.10;99.90
18434;DHT22;9344;52.294;13.626;2022-12-18T09:41:18;-2.50;99.90
18434;DHT22;9344;52.294;13.626;2022-12-18T09:43:52;-3.20;99.90
18434;DHT22;9344;52.294;13.626;2022-12-18T09:46:25;-3.10;99.90
18434;DHT22;9344;52.294;13.626;2022-12-18T09:48:56;-3.10;99.90
18434;DHT22;9344;52.294;13.626;2022-12-18T09:51:27;-3.10;99.90
18434;DHT22;9344;52.294;13.626;2022-12-18T09:53:59;-2.70;99.90
18434;DHT22;9344;52.294;13.626;2022-12-18T09:56:29;-3.10;99.90
18434;DHT22;9344;52.294;13.626;2022-12-18T09:58:59;-3.20;99.90
18434;DHT22;9344;52.294;13.626;2022-12-18T10:01:27;-3.20;99.90
18434;DHT22;9344;52.294;13.626;2022-12-18T10:03:55;-3.20;99.90
18434;DHT22;9344;52.294;13.626;2022-12-18T10:06:24;-3.10;99.90
18434;DHT22;9344;52.294;13.626;2022-12-18T10:08:58;-3.00;99.90
18434;DHT22;9344;52.294;13.626;2022-12-18T10:11:36;-3.10;99.90
18434;DHT22;9344;52.294;13.626;2022-12-18T10:14:11;-3.00;99.90
18434;DHT22;9344;52.294;13.626;2022-12-18T10:16:47;-2.90;99.90
18434;DHT22;9344;52.294;13.626;2022-12-18T10:19:25;-2.90;99.90
18434;DHT22;9344;52.294;13.626;2022-12-18T10:21:59;-3.00;99.90
18434;DHT22;9344;52.294;13.626;2022-12-18T10:24:38;-3.00;99.90
18434;DHT22;9344;52.294;13.626;2022-12-18T10:27:13;-2.90;99.90
18434;DHT22;9344;52.294;13.626;2022-12-18T10:29:41;-2.90;99.90
18434;DHT22;9344;52.294;13.626;2022-12-18T10:32:14;-2.90;99.90
18434;DHT22;9344;52.294;13.626;2022-12-18T10:34:44;-2.90;99.90
18434;DHT22;9344;52.294;13.626;2022-12-18T10:37:15;-2.90;99.90
18434;DHT22;9344;52.294;13.626;2022-12-18T10:39:43;-2.90;99.90
18434;DHT22;9344;52.294;13.626;2022-12-18T10:42:14;-2.90;99.90
18434;DHT22;9344;52.294;13.626;2022-12-18T10:44:42;-2.80;99.90
18434;DHT22;9344;52.294;13.626;2022-12-18T10:47:13;-2.70;99.90
18434;DHT22;9344;52.294;13.626;2022-12-18T10:49:46;-2.80;99.90
18434;DHT22;9344;52.294;13.626;2022-12-18T10:52:15;-2.90;99.90
18434;DHT22;9344;52.294;13.626;2022-12-18T10:54:49;-2.80;99.90
18434;DHT22;9344;52.294;13.626;2022-12-18T10:57:29;-2.90;99.90
18434;DHT22;9344;52.294;13.626;2022-12-18T10:59:57;-2.90;99.90
18434;DHT22;9344;52.294;13.626;2022-12-18T11:02:28;-2.60;99.90
18434;DHT22;9344;52.294;13.626;2022-12-18T11:04:54;-3.00;99.90
18434;DHT22;9344;52.294;13.626;2022-12-18T11:07:21;-3.00;99.90
18434;DHT22;9344;52.294;13.626;2022-12-18T11:10:00;-2.60;99.90
18434;DHT22;9344;52.294;13.626;2022-12-18T11:12:28;-3.00;99.90
18434;DHT22;9344;52.294;13.626;2022-12-18T11:14:55;-2.90;99.90
18434;DHT22;9344;52.294;13.626;2022-12-18T11:17:28;-2.10;99.90
18434;DHT22;9344;52.294;13.626;2022-12-18T11:19:56;-2.70;99.90
18434;DHT22;9344;52.294;13.626;2022-12-18T11:22:25;-2.70;99.90
18434;DHT22;9344;52.294;13.626;2022-12-18T11:24:56;-2.60;99.90
18434;DHT22;9344;52.294;13.626;2022-12-18T11:27:23;-2.60;99.90
18434;DHT22;9344;52.294;13.626;2022-12-18T11:30:08;-2.10;99.90
18434;DHT22;9344;52.294;13.626;2022-12-18T11:32:37;-2.60;99.90
18434;DHT22;9344;52.294;13.626;2022-12-18T11:35:13;-2.50;99.90
18434;DHT22;9344;52.294;13.626;2022-12-18T11:37:43;-2.60;99.90
18434;DHT22;9344;52.294;13.626;2022-12-18T11:40:14;-2.50;99.90
18434;DHT22;9344;52.294;13.626;2022-12-18T11:42:48;-2.50;99.90
18434;DHT22;9344;52.294;13.626;2022-12-18T11:45:28;-2.50;99.90
18434;DHT22;9344;52.294;13.626;2022-12-18T11:47:59;-2.60;99.90
18434;DHT22;9344;52.294;13.626;2022-12-18T11:50:31;-2.50;99.90
18434;DHT22;9344;52.294;13.626;2022-12-18T11:52:58;-2.40;99.90
18434;DHT22;9344;52.294;13.626;2022-12-18T11:55:35;-1.90;99.90
18434;DHT22;9344;52.294;13.626;2022-12-18T11:58:07;-2.50;99.90
18434;DHT22;9344;52.294;13.626;2022-12-18T12:00:40;-2.40;99.90
18434;DHT22;9344;52.294;13.626;2022-12-18T12:03:39;-2.40;99.90
18434;DHT22;9344;52.294;13.626;2022-12-18T12:06:18;-2.50;99.90
18434;DHT22;9344;52.294;13.626;2022-12-18T12:08:58;-2.40;99.90
18434;DHT22;9344;52.294;13.626;2022-12-18T12:11:33;-2.50;99.90
18434;DHT22;9344;52.294;13.626;2022-12-18T12:14:14;-2.50;99.90
18434;DHT22;9344;52.294;13.626;2022-12-18T12:16:51;-2.40;99.90
18434;DHT22;9344;52.294;13.626;2022-12-18T12:19:32;-2.50;99.90
18434;DHT22;9344;52.294;13.626;2022-12-18T12:22:08;-2.50;99.90
18434;DHT22;9344;52.294;13.626;2022-12-18T12:24:49;-2.50;99.90
18434;DHT22;9344;52.294;13.626;2022-12-18T12:27:28;-2.60;99.90
18434;DHT22;9344;52.294;13.626;2022-12-18T12:30:03;-2.60;99.90
18434;DHT22;9344;52.294;13.626;2022-12-18T12:32:50;-4.20;99.90
18434;DHT22;9344;52.294;13.626;2022-12-18T12:35:32;-2.70;99.90
18434;DHT22;9344;52.294;13.626;2022-12-18T12:38:07;-2.70;99.90
18434;DHT22;9344;52.294;13.626;2022-12-18T12:40:37;-2.60;99.90
18434;DHT22;9344;52.294;13.626;2022-12-18T12:43:19;-2.60;99.90
18434;DHT22;9344;52.294;13.626;2022-12-18T12:45:49;-2.40;99.90
18434;DHT22;9344;52.294;13.626;2022-12-18T12:48:21;-2.40;99.90
18434;DHT22;9344;52.294;13.626;2022-12-18T12:50:51;-2.50;99.90
18434;DHT22;9344;52.294;13.626;2022-12-18T12:53:24;-1.90;99.90
18434;DHT22;9344;52.294;13.626;2022-12-18T12:55:52;-2.40;99.90
18434;DHT22;9344;52.294;13.626;2022-12-18T12:58:26;-2.40;99.90
18434;DHT22;9344;52.294;13.626;2022-12-18T13:01:02;-2.30;99.90
18434;DHT22;9344;52.294;13.626;2022-12-18T13:03:41;-2.30;99.90
18434;DHT22;9344;52.294;13.626;2022-12-18T13:06:12;-2.20;99.90
18434;DHT22;9344;52.294;13.626;2022-12-18T13:08:53;-2.20;99.90
18434;DHT22;9344;52.294;13.626;2022-12-18T13:11:31;-2.30;99.90
18434;DHT22;9344;52.294;13.626;2022-12-18T13:14:27;-2.30;99.90
18434;DHT22;9344;52.294;13.626;2022-12-18T13:17:24;-2.30;99.90
18434;DHT22;9344;52.294;13.626;2022-12-18T13:20:07;-2.30;99.90
18434;DHT22;9344;52.294;13.626;2022-12-18T13:22:36;-2.40;99.90
18434;DHT22;9344;52.294;13.626;2022-12-18T13:28:11;-2.50;99.90
18434;DHT22;9344;52.294;13.626;2022-12-18T13:30:54;-2.50;99.90
18434;DHT22;9344;52.294;13.626;2022-12-18T13:33:47;-2.50;99.90
18434;DHT22;9344;52.294;13.626;2022-12-18T13:36:24;-2.60;99.90
18434;DHT22;9344;52.294;13.626;2022-12-18T13:39:11;-2.60;99.90
18434;DHT22;9344;52.294;13.626;2022-12-18T13:41:37;-2.60;99.90
18434;DHT22;9344;52.294;13.626;2022-12-18T13:44:11;-2.50;99.90
18434;DHT22;9344;52.294;13.626;2022-12-18T13:46:44;-2.50;99.90
18434;DHT22;9344;52.294;13.626;2022-12-18T13:49:21;-2.50;99.90
18434;DHT22;9344;52.294;13.626;2022-12-18T13:51:52;-2.60;99.90
18434;DHT22;9344;52.294;13.626;2022-12-18T13:54:29;-2.60;99.90
18434;DHT22;9344;52.294;13.626;2022-12-18T13:56:56;-1.10;99.90
18434;DHT22;9344;52.294;13.626;2022-12-18T13:59:26;-2.70;99.90
18434;DHT22;9344;52.294;13.626;2022-12-18T14:01:56;-2.70;99.90
18434;DHT22;9344;52.294;13.626;2022-12-18T14:04:25;-2.80;99.90
18434;DHT22;9344;52.294;13.626;2022-12-18T14:06:56;-2.90;99.90
18434;DHT22;9344;52.294;13.626;2022-12-18T14:09:26;-2.80;99.90
18434;DHT22;9344;52.294;13.626;2022-12-18T14:11:55;-2.90;99.90
18434;DHT22;9344;52.294;13.626;2022-12-18T14:14:48;-2.90;99.90
18434;DHT22;9344;52.294;13.626;2022-12-18T14:17:18;-3.00;99.90
18434;DHT22;9344;52.294;13.626;2022-12-18T14:19:47;-2.90;99.90
18434;DHT22;9344;52.294;13.626;2022-12-18T14:22:16;-3.10;99.90
18434;DHT22;9344;52.294;13.626;2022-12-18T14:27:23;-3.10;99.90
18434;DHT22;9344;52.294;13.626;2022-12-18T14:29:56;-3.10;99.90
18434;DHT22;9344;52.294;13.626;2022-12-18T14:32:25;-2.80;99.90
18434;DHT22;9344;52.294;13.626;2022-12-18T14:34:57;-3.10;99.90
18434;DHT22;9344;52.294;13.626;2022-12-18T14:37:27;-2.80;99.90
18434;DHT22;9344;52.294;13.626;2022-12-18T14:39:59;-2.70;99.90
18434;DHT22;9344;52.294;13.626;2022-12-18T14:42:33;-3.00;99.90
18434;DHT22;9344;52.294;13.626;2022-12-18T14:45:35;-2.90;99.90
18434;DHT22;9344;52.294;13.626;2022-12-18T14:48:13;-3.10;99.90
18434;DHT22;9344;52.294;13.626;2022-12-18T14:50:41;-2.70;99.90
18434;DHT22;9344;52.294;13.626;2022-12-18T14:53:19;-3.10;99.90
18434;DHT22;9344;52.294;13.626;2022-12-18T14:55:47;-3.10;99.90
18434;DHT22;9344;52.294;13.626;2022-12-18T14:58:15;-3.20;99.90
18434;DHT22;9344;52.294;13.626;2022-12-18T15:03:14;-3.80;99.90
18434;DHT22;9344;52.294;13.626;2022-12-18T15:05:43;-3.10;99.90
18434;DHT22;9344;52.294;13.626;2022-12-18T15:08:28;-2.80;99.90
18434;DHT22;9344;52.294;13.626;2022-12-18T15:10:57;-3.20;99.90
18434;DHT22;9344;52.294;13.626;2022-12-18T15:13:24;-3.30;99.90
18434;DHT22;9344;52.294;13.626;2022-12-18T15:15:57;-2.50;99.90
18434;DHT22;9344;52.294;13.626;2022-12-18T15:18:30;-2.30;99.90
18434;DHT22;9344;52.294;13.626;2022-12-18T15:20:59;-3.20;99.90
18434;DHT22;9344;52.294;13.626;2022-12-18T15:23:36;-3.30;99.90
18434;DHT22;9344;52.294;13.626;2022-12-18T15:26:04;-3.40;99.90
18434;DHT22;9344;52.294;13.626;2022-12-18T15:28:38;-3.30;99.90
18434;DHT22;9344;52.294;13.626;2022-12-18T15:31:23;-3.20;99.90
18434;DHT22;9344;52.294;13.626;2022-12-18T15:34:20;-3.20;99.90
18434;DHT22;9344;52.294;13.626;2022-12-18T15:36:47;-3.10;99.90
18434;DHT22;9344;52.294;13.626;2022-12-18T15:39:19;-3.10;99.90
18434;DHT22;9344;52.294;13.626;2022-12-18T15:41:45;-3.10;99.90
18434;DHT22;9344;52.294;13.626;2022-12-18T15:44:30;-3.10;99.90
18434;DHT22;9344;52.294;13.626;2022-12-18T15:46:58;-3.10;99.90
18434;DHT22;9344;52.294;13.626;2022-12-18T15:49:26;-2.50;99.90
18434;DHT22;9344;52.294;13.626;2022-12-18T15:51:57;-3.20;99.90
18434;DHT22;9344;52.294;13.626;2022-12-18T15:54:24;-3.30;99.90
18434;DHT22;9344;52.294;13.626;2022-12-18T15:57:04;-3.30;99.90
18434;DHT22;9344;52.294;13.626;2022-12-18T15:59:49;-3.30;99.90
18434;DHT22;9344;52.294;13.626;2022-12-18T16:02:18;-3.30;99.90
18434;DHT22;9344;52.294;13.626;2022-12-18T16:04:54;-3.30;99.90
18434;DHT22;9344;52.294;13.626;2022-12-18T16:07:21;-3.30;99.90
18434;DHT22;9344;52.294;13.626;2022-12-18T16:09:48;-3.40;99.90
18434;DHT22;9344;52.294;13.626;2022-12-18T16:12:18;-3.50;99.90
18434;DHT22;9344;52.294;13.626;2022-12-18T16:14:46;-3.50;99.90
18434;DHT22;9344;52.294;13.626;2022-12-18T16:17:14;-3.50;99.90
18434;DHT22;9344;52.294;13.626;2022-12-18T16:19:40;-3.50;99.90
18434;DHT22;9344;52.294;13.626;2022-12-18T16:22:19;-2.60;99.90
18434;DHT22;9344;52.294;13.626;2022-12-18T16:24:48;-3.60;99.90
18434;DHT22;9344;52.294;13.626;2022-12-18T16:27:14;-3.70;99.90
18434;DHT22;9344;52.294;13.626;2022-12-18T16:29:42;-3.60;99.90
18434;DHT22;9344;52.294;13.626;2022-12-18T16:32:12;-3.70;99.90
18434;DHT22;9344;52.294;13.626;2022-12-18T16:34:38;-3.80;99.90
18434;DHT22;9344;52.294;13.626;2022-12-18T16:37:08;-3.80;99.90
18434;DHT22;9344;52.294;13.626;2022-12-18T16:39:37;-3.80;99.90
18434;DHT22;9344;52.294;13.626;2022-12-18T16:42:05;-3.80;99.90
18434;DHT22;9344;52.294;13.626;2022-12-18T16:44:32;-3.80;99.90
18434;DHT22;9344;52.294;13.626;2022-12-18T16:46:59;-3.80;99.90
18434;DHT22;9344;52.294;13.626;2022-12-18T16:49:27;-3.80;99.90
18434;DHT22;9344;52.294;13.626;2022-12-18T16:51:54;-3.90;99.90
18434;DHT22;9344;52.294;13.626;2022-12-18T16:54:20;-3.80;99.90
18434;DHT22;9344;52.294;13.626;2022-12-18T16:56:49;-3.90;99.90
18434;DHT22;9344;52.294;13.626;2022-12-18T16:59:16;-3.90;99.90
18434;DHT22;9344;52.294;13.626;2022-12-18T17:01:43;-4.00;99.90
18434;DHT22;9344;52.294;13.626;2022-12-18T17:04:10;-3.90;99.90
18434;DHT22;9344;52.294;13.626;2022-12-18T17:06:39;-3.70;99.90
18434;DHT22;9344;52.294;13.626;2022-12-18T17:09:09;-3.60;99.90
18434;DHT22;9344;52.294;13.626;2022-12-18T17:11:36;-3.90;99.90
18434;DHT22;9344;52.294;13.626;2022-12-18T17:14:07;-4.00;99.90
18434;DHT22;9344;52.294;13.626;2022-12-18T17:16:34;-4.00;99.90
18434;DHT22;9344;52.294;13.626;2022-12-18T17:19:01;-4.00;99.90
18434;DHT22;9344;52.294;13.626;2022-12-18T17:21:27;-4.00;99.90
18434;DHT22;9344;52.294;13.626;2022-12-18T17:23:54;-4.00;99.90